createdAt,value
2017-11-27T00:00:57.464Z,9.43
2017-11-27T00:03:24.947Z,14.57
2017-11-27T00:05:52.982Z,20.10
2017-11-27T00:08:21.226Z,9.17
2017-11-27T00:10:48.718Z,7.50
2017-11-27T00:13:16.950Z,11.80
2017-11-27T00:15:44.444Z,8.37
2017-11-27T00:18:12.683Z,12.37
2017-11-27T00:20:40.159Z,17.57
2017-11-27T00:23:07.610Z,12.83
2017-11-27T00:25:35.094Z,15.13
2017-11-27T00:28:03.352Z,14.70
2017-11-27T00:30:30.811Z,15.77
2017-11-27T00:32:58.267Z,10.70
2017-11-27T00:35:25.746Z,16.73
2017-11-27T00:37:53.519Z,8.73
2017-11-27T00:40:20.967Z,9.93
2017-11-27T00:42:48.443Z,11.87
2017-11-27T00:45:16.742Z,11.67
2017-11-27T00:47:44.211Z,13.90
2017-11-27T00:50:11.690Z,10.33
2017-11-27T00:52:39.944Z,6.93
2017-11-27T00:55:07.391Z,8.60
2017-11-27T00:57:34.867Z,12.87
2017-11-27T01:00:02.351Z,8.80
2017-11-27T01:02:29.798Z,6.57
2017-11-27T01:04:57.249Z,19.27
2017-11-27T01:07:24.770Z,15.53
2017-11-27T01:09:52.215Z,6.70
2017-11-27T01:12:20.447Z,7.47
2017-11-27T01:14:47.907Z,12.90
2017-11-27T01:17:15.859Z,20.83
2017-11-27T01:19:43.347Z,5.53
2017-11-27T01:22:10.791Z,7.37
2017-11-27T01:24:38.246Z,13.47
2017-11-27T01:27:05.738Z,11.53
2017-11-27T01:29:33.190Z,12.00
2017-11-27T01:32:00.669Z,10.33
2017-11-27T01:34:28.153Z,12.17
2017-11-27T01:36:55.673Z,8.13
2017-11-27T01:39:23.154Z,8.40
2017-11-27T01:41:50.603Z,10.47
2017-11-27T01:44:18.813Z,11.87
2017-11-27T01:46:46.289Z,11.50
2017-11-27T01:49:13.730Z,5.47
2017-11-27T01:51:41.203Z,9.70
2017-11-27T01:54:08.649Z,10.20
2017-11-27T01:56:36.124Z,9.50
2017-11-27T01:59:03.579Z,14.93
2017-11-27T02:01:31.031Z,13.70
2017-11-27T02:03:58.522Z,10.80
2017-11-27T02:06:25.975Z,13.23
2017-11-27T02:08:53.441Z,15.60
2017-11-27T02:11:20.914Z,11.30
2017-11-27T02:13:49.137Z,12.90
2017-11-27T02:16:16.608Z,12.77
2017-11-27T02:18:44.060Z,11.83
2017-11-27T02:21:11.833Z,11.27
2017-11-27T02:23:39.482Z,14.83
2017-11-27T02:26:06.963Z,9.83
2017-11-27T02:28:34.450Z,22.00
2017-11-27T02:31:02.763Z,7.90
2017-11-27T02:33:30.247Z,13.30
2017-11-27T02:35:57.716Z,17.10
2017-11-27T02:38:25.632Z,13.70
2017-11-27T02:40:53.086Z,11.03
2017-11-27T02:43:20.560Z,13.87
2017-11-27T02:45:48.031Z,15.90
2017-11-27T02:48:15.484Z,21.73
2017-11-27T02:50:42.960Z,17.60
2017-11-27T02:53:10.416Z,24.93
2017-11-27T02:55:37.898Z,21.20
2017-11-27T02:58:05.364Z,19.50
2017-11-27T03:00:32.847Z,49.97
2017-11-27T03:03:01.068Z,20.80
2017-11-27T03:05:28.601Z,13.97
2017-11-27T03:07:56.114Z,19.83
2017-11-27T03:10:23.566Z,15.60
2017-11-27T03:12:51.046Z,13.37
2017-11-27T03:15:19.267Z,10.50
2017-11-27T03:17:46.738Z,26.20
2017-11-27T03:20:14.195Z,26.60
2017-11-27T03:22:41.670Z,27.23
2017-11-27T03:25:09.152Z,19.90
2017-11-27T03:27:36.632Z,11.23
2017-11-27T03:30:04.078Z,26.07
2017-11-27T03:32:31.549Z,11.60
2017-11-27T03:34:59.036Z,11.93
2017-11-27T03:37:26.592Z,13.52
2017-11-27T03:39:54.075Z,18.90
2017-11-27T03:42:21.530Z,12.27
2017-11-27T03:44:48.983Z,18.60
2017-11-27T03:47:16.459Z,23.47
2017-11-27T03:49:43.916Z,12.50
2017-11-27T03:52:11.391Z,20.70
2017-11-27T03:54:39.624Z,18.23
2017-11-27T03:57:07.102Z,18.13
2017-11-27T03:59:34.570Z,14.50
2017-11-27T04:02:02.033Z,35.40
2017-11-27T04:04:29.524Z,11.70
2017-11-27T04:06:57.093Z,17.00
2017-11-27T04:09:24.551Z,14.87
2017-11-27T04:11:52.031Z,10.07
2017-11-27T04:14:19.518Z,16.13
2017-11-27T04:16:46.975Z,10.57
2017-11-27T04:19:14.459Z,15.53
2017-11-27T04:21:41.923Z,17.70
2017-11-27T04:24:09.383Z,10.63
2017-11-27T04:26:37.115Z,11.50
2017-11-27T04:29:04.570Z,15.07
2017-11-27T04:31:32.046Z,17.60
2017-11-27T04:33:59.493Z,20.33
2017-11-27T04:36:27.891Z,10.53
2017-11-27T04:38:55.375Z,11.33
2017-11-27T04:41:22.835Z,14.97
2017-11-27T04:43:50.326Z,15.13
2017-11-27T04:46:17.787Z,14.07
2017-11-27T04:48:46.007Z,11.93
2017-11-27T04:51:13.474Z,15.47
2017-11-27T04:53:40.963Z,11.80
2017-11-27T04:56:08.476Z,9.43
2017-11-27T04:58:36.703Z,9.10
2017-11-27T05:01:04.190Z,6.33
2017-11-27T05:03:31.642Z,11.10
2017-11-27T05:05:59.130Z,6.63
2017-11-27T05:08:28.276Z,19.67
2017-11-27T05:10:55.727Z,15.37
2017-11-27T05:13:23.219Z,8.37
2017-11-27T05:15:50.691Z,11.73
2017-11-27T05:18:18.146Z,20.60
2017-11-27T05:20:45.621Z,6.37
2017-11-27T05:23:13.079Z,14.43
2017-11-27T05:25:41.425Z,5.13
2017-11-27T05:28:09.650Z,12.10
2017-11-27T05:30:37.127Z,6.17
2017-11-27T05:33:04.607Z,6.03
2017-11-27T05:35:32.047Z,5.10
2017-11-27T05:37:59.495Z,17.93
2017-11-27T05:40:26.977Z,9.07
2017-11-27T05:42:54.440Z,13.53
2017-11-27T05:45:21.902Z,5.70
2017-11-27T05:47:49.367Z,9.67
2017-11-27T05:50:16.839Z,9.57
2017-11-27T05:52:44.321Z,4.00
2017-11-27T05:55:12.537Z,3.93
2017-11-27T05:57:39.993Z,4.67
2017-11-27T06:00:07.466Z,12.30
2017-11-27T06:02:34.966Z,7.30
2017-11-27T06:05:03.186Z,3.70
2017-11-27T06:07:30.641Z,12.33
2017-11-27T06:09:58.133Z,5.30
2017-11-27T06:12:25.619Z,6.00
2017-11-27T06:14:53.833Z,4.67
2017-11-27T06:17:21.375Z,6.23
2017-11-27T06:19:48.831Z,7.63
2017-11-27T06:22:16.286Z,12.97
2017-11-27T06:24:43.778Z,7.30
2017-11-27T06:27:11.242Z,11.73
2017-11-27T06:29:38.732Z,10.20
2017-11-27T06:32:06.185Z,9.33
2017-11-27T06:34:33.675Z,5.53
2017-11-27T06:37:01.130Z,15.30
2017-11-27T06:39:28.578Z,6.30
2017-11-27T06:41:56.842Z,13.27
2017-11-27T06:44:24.317Z,12.13
2017-11-27T06:46:51.866Z,3.53
2017-11-27T06:49:20.114Z,12.70
2017-11-27T06:51:47.593Z,11.60
2017-11-27T06:54:15.046Z,8.57
2017-11-27T06:56:42.518Z,4.80
2017-11-27T06:59:10.759Z,6.87
2017-11-27T07:01:38.220Z,15.03
2017-11-27T07:04:06.460Z,8.83
2017-11-27T07:06:34.018Z,7.40
2017-11-27T07:09:01.512Z,8.13
2017-11-27T07:11:28.986Z,3.13
2017-11-27T07:13:56.448Z,16.50
2017-11-27T07:16:23.932Z,8.50
2017-11-27T07:18:51.429Z,6.03
2017-11-27T07:21:18.880Z,10.40
2017-11-27T07:23:46.335Z,9.20
2017-11-27T07:26:13.810Z,9.53
2017-11-27T07:28:41.291Z,5.70
2017-11-27T07:31:08.745Z,6.33
2017-11-27T07:33:36.199Z,8.30
2017-11-27T07:36:03.684Z,4.93
2017-11-27T07:41:36.683Z,11.43
2017-11-27T07:44:04.139Z,15.43
2017-11-27T07:46:31.614Z,8.23
2017-11-27T07:48:59.855Z,13.97
2017-11-27T07:51:27.302Z,20.07
2017-11-27T07:53:54.787Z,10.00
2017-11-27T07:56:22.271Z,10.20
2017-11-27T07:58:50.507Z,10.87
2017-11-27T08:01:17.980Z,7.77
2017-11-27T08:03:45.439Z,10.93
2017-11-27T08:06:12.932Z,10.17
2017-11-27T08:08:40.387Z,13.93
2017-11-27T08:11:07.875Z,13.07
2017-11-27T08:13:35.344Z,12.90
2017-11-27T08:16:02.790Z,9.57
2017-11-27T08:18:30.293Z,15.13
2017-11-27T08:20:57.752Z,6.50
2017-11-27T08:23:25.204Z,13.10
2017-11-27T08:25:52.680Z,9.97
2017-11-27T08:28:20.938Z,15.00
2017-11-27T08:30:48.410Z,8.20
2017-11-27T08:33:15.863Z,7.40
2017-11-27T08:35:43.338Z,7.53
2017-11-27T08:38:10.827Z,7.07
2017-11-27T08:40:38.293Z,10.70
2017-11-27T08:43:05.763Z,9.43
2017-11-27T08:45:33.223Z,17.43
2017-11-27T08:48:00.702Z,12.93
2017-11-27T08:50:28.162Z,13.17
2017-11-27T08:52:55.624Z,13.70
2017-11-27T08:55:23.098Z,11.23
2017-11-27T08:57:51.324Z,11.40
2017-11-27T09:00:18.769Z,6.97
2017-11-27T09:02:46.259Z,10.60
2017-11-27T09:05:13.748Z,13.40
2017-11-27T09:07:41.972Z,10.80
2017-11-27T09:10:09.443Z,11.17
2017-11-27T09:12:36.946Z,11.13
2017-11-27T09:15:05.162Z,5.33
2017-11-27T09:17:32.859Z,9.43
2017-11-27T09:20:00.346Z,7.60
2017-11-27T09:22:28.564Z,7.77
2017-11-27T09:24:56.027Z,6.43
2017-11-27T09:27:23.543Z,9.40
2017-11-27T09:29:51.780Z,7.90
2017-11-27T09:32:19.675Z,7.30
2017-11-27T09:34:47.938Z,4.00
2017-11-27T09:37:15.392Z,8.27
2017-11-27T09:39:42.858Z,4.97
2017-11-27T09:42:10.331Z,6.03
2017-11-27T09:44:38.540Z,6.47
2017-11-27T09:47:06.016Z,9.10
2017-11-27T09:49:33.494Z,4.97
2017-11-27T09:52:00.959Z,5.07
2017-11-27T09:54:28.430Z,6.90
2017-11-27T09:56:56.707Z,4.77
2017-11-27T09:59:24.938Z,6.67
2017-11-27T10:01:52.432Z,4.70
2017-11-27T10:04:19.912Z,6.13
2017-11-27T10:06:48.150Z,3.30
2017-11-27T10:09:15.600Z,8.30
2017-11-27T10:11:43.075Z,3.03
2017-11-27T10:14:10.522Z,3.83
2017-11-27T10:16:37.998Z,5.53
2017-11-27T10:19:05.456Z,8.43
2017-11-27T10:21:32.949Z,5.90
2017-11-27T10:24:00.431Z,7.63
2017-11-27T10:26:27.882Z,3.53
2017-11-27T10:28:55.356Z,7.17
2017-11-27T10:31:22.832Z,4.40
2017-11-27T10:33:50.308Z,2.63
2017-11-27T10:36:17.810Z,4.63
2017-11-27T10:38:45.263Z,7.67
2017-11-27T10:41:12.732Z,3.87
2017-11-27T10:43:40.270Z,4.80
2017-11-27T10:46:08.483Z,8.10
2017-11-27T10:48:35.959Z,7.77
2017-11-27T10:51:05.106Z,4.70
2017-11-27T10:53:32.583Z,7.20
2017-11-27T10:56:00.039Z,6.77
2017-11-27T10:58:27.519Z,7.00
2017-11-27T11:01:00.675Z,5.13
2017-11-27T11:03:28.159Z,8.20
2017-11-27T11:05:55.612Z,5.27
2017-11-27T11:08:23.097Z,5.60
2017-11-27T11:10:50.568Z,4.77
2017-11-27T11:13:18.035Z,4.23
2017-11-27T11:15:45.485Z,2.00
2017-11-27T11:18:12.962Z,1.93
2017-11-27T11:20:41.210Z,4.23
2017-11-27T11:23:08.683Z,3.87
2017-11-27T11:25:36.167Z,3.17
2017-11-27T11:28:03.771Z,5.20
2017-11-27T11:30:31.232Z,3.20
2017-11-27T11:32:58.678Z,3.70
2017-11-27T11:35:26.156Z,1.90
2017-11-27T11:37:53.647Z,4.13
2017-11-27T11:40:21.879Z,5.53
2017-11-27T11:42:49.407Z,2.97
2017-11-27T11:45:16.887Z,4.90
2017-11-27T11:47:44.335Z,2.93
2017-11-27T11:50:12.563Z,4.32
2017-11-27T11:52:40.026Z,2.77
2017-11-27T11:55:07.483Z,3.27
2017-11-27T11:57:35.876Z,6.20
2017-11-27T12:00:04.090Z,3.33
2017-11-27T12:02:31.569Z,1.40
2017-11-27T12:04:59.023Z,2.80
2017-11-27T12:07:27.250Z,6.13
2017-11-27T12:09:54.708Z,3.17
2017-11-27T12:12:22.155Z,4.27
2017-11-27T12:14:49.618Z,3.07
2017-11-27T12:17:17.176Z,2.97
2017-11-27T12:19:45.410Z,1.37
2017-11-27T12:22:12.890Z,3.10
2017-11-27T12:24:40.334Z,9.17
2017-11-27T12:27:07.807Z,2.60
2017-11-27T12:29:35.314Z,6.10
2017-11-27T12:32:02.783Z,2.50
2017-11-27T12:34:30.234Z,2.30
2017-11-27T12:36:57.683Z,2.50
2017-11-27T12:39:25.155Z,3.83
2017-11-27T12:41:52.675Z,2.60
2017-11-27T12:44:20.169Z,2.33
2017-11-27T12:46:47.680Z,4.27
2017-11-27T12:49:15.134Z,3.17
2017-11-27T12:51:42.607Z,6.00
2017-11-27T12:54:10.846Z,5.40
2017-11-27T12:56:38.305Z,3.20
2017-11-27T12:59:05.776Z,3.60
2017-11-27T13:01:33.275Z,2.97
2017-11-27T13:04:00.744Z,4.53
2017-11-27T13:06:28.198Z,10.10
2017-11-27T13:08:55.671Z,3.53
2017-11-27T13:11:23.119Z,11.90
2017-11-27T13:13:50.611Z,3.10
2017-11-27T13:16:18.116Z,4.10
2017-11-27T13:18:46.367Z,2.33
2017-11-27T13:21:13.824Z,1.60
2017-11-27T13:23:41.271Z,1.87
2017-11-27T13:26:08.799Z,1.80
2017-11-27T13:28:36.255Z,1.60
2017-11-27T13:31:03.710Z,2.30
2017-11-27T13:33:31.180Z,1.60
2017-11-27T13:35:58.670Z,2.73
2017-11-27T13:38:26.119Z,4.40
2017-11-27T13:40:53.566Z,2.10
2017-11-27T13:43:21.051Z,4.23
2017-11-27T13:45:48.507Z,4.90
2017-11-27T13:48:16.015Z,3.53
2017-11-27T13:50:43.459Z,5.13
2017-11-27T13:53:10.928Z,1.40
2017-11-27T13:55:38.390Z,6.30
2017-11-27T13:58:05.919Z,15.60
2017-11-27T14:00:34.134Z,1.43
2017-11-27T14:03:01.610Z,1.73
2017-11-27T14:05:29.110Z,4.97
2017-11-27T14:07:57.322Z,14.27
2017-11-27T14:10:24.791Z,5.33
2017-11-27T14:12:52.275Z,5.63
2017-11-27T14:15:19.776Z,3.37
2017-11-27T14:17:48.015Z,3.17
2017-11-27T14:20:15.476Z,2.23
2017-11-27T14:22:42.927Z,2.17
2017-11-27T14:25:10.396Z,2.53
2017-11-27T14:27:37.855Z,4.80
2017-11-27T14:30:05.334Z,3.77
2017-11-27T14:32:33.575Z,3.23
2017-11-27T14:35:01.023Z,5.30
2017-11-27T14:37:28.558Z,4.80
2017-11-27T14:39:56.048Z,5.00
2017-11-27T14:42:23.529Z,5.73
2017-11-27T14:44:51.002Z,10.67
2017-11-27T14:47:18.484Z,1.83
2017-11-27T14:49:45.951Z,4.10
2017-11-27T14:52:13.459Z,4.40
2017-11-27T14:54:40.902Z,11.70
2017-11-27T14:57:08.353Z,5.70
2017-11-27T14:59:35.827Z,4.60
2017-11-27T15:02:03.283Z,6.27
2017-11-27T15:04:30.783Z,5.20
2017-11-27T15:06:58.249Z,5.83
2017-11-27T15:09:25.690Z,6.07
2017-11-27T15:11:53.939Z,6.30
2017-11-27T15:14:21.417Z,5.83
2017-11-27T15:16:49.643Z,7.47
2017-11-27T15:19:17.134Z,6.23
2017-11-27T15:21:44.593Z,6.10
2017-11-27T15:24:12.049Z,7.93
2017-11-27T15:26:40.043Z,5.37
2017-11-27T15:29:08.295Z,9.33
2017-11-27T15:31:35.820Z,6.03
2017-11-27T15:34:04.082Z,5.23
2017-11-27T15:36:31.598Z,4.90
2017-11-27T15:38:59.092Z,6.00
2017-11-27T15:41:26.549Z,6.80
2017-11-27T15:43:54.035Z,7.60
2017-11-27T15:46:21.532Z,8.27
2017-11-27T15:48:49.766Z,10.77
2017-11-27T15:51:17.246Z,11.23
2017-11-27T15:53:44.706Z,13.03
2017-11-27T15:56:12.191Z,7.90
2017-11-27T15:58:41.357Z,8.10
2017-11-27T16:01:08.852Z,10.50
2017-11-27T16:03:37.172Z,6.50
2017-11-27T16:06:04.632Z,6.00
2017-11-27T16:08:32.120Z,14.00
2017-11-27T16:10:59.641Z,14.37
2017-11-27T16:13:27.079Z,8.80
2017-11-27T16:15:54.587Z,8.77
2017-11-27T16:18:22.081Z,9.07
2017-11-27T16:20:50.298Z,12.93
2017-11-27T16:23:17.761Z,11.80
2017-11-27T16:25:45.236Z,12.53
2017-11-27T16:28:12.704Z,5.20
2017-11-27T16:30:41.107Z,7.33
2017-11-27T16:33:09.381Z,8.17
2017-11-27T16:35:36.852Z,10.00
2017-11-27T16:38:05.124Z,10.60
2017-11-27T16:40:32.571Z,11.80
2017-11-27T16:43:00.023Z,9.60
2017-11-27T16:45:27.515Z,6.20
2017-11-27T16:47:54.971Z,15.57
2017-11-27T16:50:22.458Z,14.93
2017-11-27T16:52:49.915Z,8.50
2017-11-27T16:55:18.171Z,17.43
2017-11-27T16:57:45.627Z,15.90
2017-11-27T17:00:13.083Z,19.63
2017-11-27T17:02:40.579Z,19.20
2017-11-27T17:05:08.054Z,13.30
2017-11-27T17:07:35.532Z,11.40
2017-11-27T17:10:03.763Z,8.43
2017-11-27T17:12:31.253Z,11.80
2017-11-27T17:14:58.716Z,12.20
2017-11-27T17:17:26.211Z,6.80
2017-11-27T17:19:53.711Z,14.03
2017-11-27T17:22:21.165Z,13.60
2017-11-27T17:24:48.752Z,13.37
2017-11-27T17:27:16.214Z,19.77
2017-11-27T17:29:43.707Z,18.00
2017-11-27T17:32:12.870Z,24.67
2017-11-27T17:34:40.319Z,16.33
2017-11-27T17:37:07.794Z,13.33
2017-11-27T17:39:35.272Z,19.10
2017-11-27T17:42:02.740Z,14.57
2017-11-27T17:44:30.219Z,14.33
2017-11-27T17:46:57.697Z,12.73
2017-11-27T17:49:25.170Z,20.63
2017-11-27T17:51:52.635Z,14.10
2017-11-27T17:54:20.128Z,19.70
2017-11-27T17:56:47.633Z,15.23
2017-11-27T17:59:15.087Z,19.87
2017-11-27T18:01:43.459Z,17.58
2017-11-27T18:04:10.941Z,20.50
2017-11-27T18:06:38.455Z,25.17
2017-11-27T18:09:05.927Z,24.00
2017-11-27T18:11:33.422Z,22.93
2017-11-27T18:14:01.180Z,19.27
2017-11-27T18:16:29.118Z,24.90
2017-11-27T18:18:56.600Z,24.60
2017-11-27T18:21:24.383Z,12.43
2017-11-27T18:23:51.918Z,10.65
2017-11-27T18:26:19.398Z,17.27
2017-11-27T18:28:46.929Z,12.50
2017-11-27T18:31:14.808Z,29.63
2017-11-27T18:33:43.285Z,19.00
2017-11-27T18:36:10.754Z,11.73
2017-11-27T18:38:38.258Z,9.93
2017-11-27T18:41:05.720Z,23.47
2017-11-27T18:43:33.171Z,11.40
2017-11-27T18:46:00.648Z,15.97
2017-11-27T18:48:28.136Z,25.50
2017-11-27T18:50:55.596Z,26.13
2017-11-27T18:53:23.061Z,13.10
2017-11-27T18:55:50.660Z,8.10
2017-11-27T18:58:18.110Z,13.73
2017-11-27T19:00:45.575Z,15.40
2017-11-27T19:03:14.515Z,15.35
2017-11-27T19:05:42.002Z,19.40
2017-11-27T19:08:09.475Z,12.80
2017-11-27T19:10:37.712Z,18.83
2017-11-27T19:13:05.166Z,11.20
2017-11-27T19:15:32.700Z,18.40
2017-11-27T19:18:00.173Z,12.83
2017-11-27T19:20:27.630Z,12.93
2017-11-27T19:22:55.119Z,14.23
2017-11-27T19:25:22.623Z,11.17
2017-11-27T19:27:50.111Z,11.67
2017-11-27T19:30:17.578Z,9.60
2017-11-27T19:32:45.034Z,4.60
2017-11-27T19:35:12.522Z,9.13
2017-11-27T19:37:39.985Z,6.10
2017-11-27T19:40:07.453Z,4.33
2017-11-27T19:42:35.844Z,2.30
2017-11-27T19:45:03.303Z,7.47
2017-11-27T19:47:31.539Z,1.10
2017-11-27T19:49:59.006Z,2.97
2017-11-27T19:52:26.446Z,3.73
2017-11-27T19:54:53.914Z,0.80
2017-11-27T19:57:21.378Z,2.50
2017-11-27T19:59:48.843Z,2.20
2017-11-27T20:02:17.665Z,2.40
2017-11-27T20:04:45.182Z,2.80
2017-11-27T20:07:14.205Z,0.90
2017-11-27T20:09:41.731Z,0.90
2017-11-27T20:12:09.175Z,0.70
2017-11-27T20:14:36.623Z,0.90
2017-11-27T20:17:04.102Z,1.53
2017-11-27T20:19:31.550Z,1.00
2017-11-27T20:21:59.389Z,8.03
2017-11-27T20:24:26.889Z,1.53
2017-11-27T20:26:54.360Z,0.70
2017-11-27T20:29:21.834Z,3.13
2017-11-27T20:31:49.320Z,1.00
2017-11-27T20:34:17.631Z,7.10
2017-11-27T20:36:45.552Z,6.73
2017-11-27T20:39:13.897Z,1.03
2017-11-27T20:41:41.519Z,0.80
2017-11-27T20:44:08.996Z,8.77
2017-11-27T20:46:36.461Z,1.10
2017-11-27T20:49:03.975Z,3.63
2017-11-27T20:51:31.636Z,1.63
2017-11-27T20:53:59.373Z,4.70
2017-11-27T20:56:27.921Z,3.17
2017-11-27T20:58:55.775Z,0.93
2017-11-27T21:01:23.226Z,3.20
2017-11-27T21:03:50.831Z,5.23
2017-11-27T21:06:18.291Z,4.03
2017-11-27T21:08:46.374Z,5.23
2017-11-27T21:11:13.976Z,2.13
2017-11-27T21:13:41.469Z,4.67
2017-11-27T21:16:09.930Z,1.87
2017-11-27T21:18:37.424Z,1.87
2017-11-27T21:21:04.880Z,1.20
2017-11-27T21:23:32.359Z,7.23
2017-11-27T21:26:00.575Z,5.07
2017-11-27T21:28:28.115Z,1.20
2017-11-27T21:30:55.599Z,4.17
2017-11-27T21:33:23.079Z,1.10
2017-11-27T21:35:50.526Z,2.83
2017-11-27T21:38:17.991Z,5.20
2017-11-27T21:40:45.501Z,1.30
2017-11-27T21:43:12.989Z,1.20
2017-11-27T21:45:40.528Z,2.17
2017-11-27T21:48:08.035Z,4.70
2017-11-27T21:50:35.507Z,6.30
2017-11-27T21:53:02.978Z,10.75
2017-11-27T21:55:30.464Z,4.57
2017-11-27T21:57:57.925Z,1.47
2017-11-27T22:00:25.410Z,0.80
2017-11-27T22:02:52.858Z,0.80
2017-11-27T22:05:20.335Z,1.53
2017-11-27T22:07:47.779Z,0.80
2017-11-27T22:10:15.254Z,4.80
2017-11-27T22:12:42.727Z,3.57
2017-11-27T22:15:10.227Z,1.20
2017-11-27T22:17:38.452Z,3.33
2017-11-27T22:20:05.922Z,2.43
2017-11-27T22:22:33.396Z,2.90
2017-11-27T22:25:01.629Z,3.07
2017-11-27T22:27:29.119Z,2.00
2017-11-27T22:29:56.581Z,2.23
2017-11-27T22:32:24.048Z,1.10
2017-11-27T22:34:52.311Z,2.50
2017-11-27T22:37:19.775Z,4.60
2017-11-27T22:39:47.739Z,1.10
2017-11-27T22:42:15.234Z,1.70
2017-11-27T22:44:42.698Z,3.43
2017-11-27T22:47:10.202Z,3.37
2017-11-27T22:49:37.655Z,2.33
2017-11-27T22:52:05.146Z,1.77
2017-11-27T22:54:33.375Z,3.33
2017-11-27T22:57:00.832Z,2.30
2017-11-27T22:59:28.336Z,8.27
2017-11-27T23:01:56.586Z,2.07
2017-11-27T23:04:24.851Z,3.87
2017-11-27T23:06:52.342Z,1.83
2017-11-27T23:09:19.795Z,2.40
2017-11-27T23:11:47.269Z,1.23
2017-11-27T23:14:15.483Z,2.40
2017-11-27T23:16:42.972Z,2.20
2017-11-27T23:19:10.423Z,1.47
2017-11-27T23:21:37.875Z,7.13
2017-11-27T23:24:05.352Z,4.40
2017-11-27T23:26:32.848Z,4.20
2017-11-27T23:29:01.060Z,5.53
2017-11-27T23:31:28.511Z,5.23
2017-11-27T23:33:55.979Z,0.90
2017-11-27T23:36:23.492Z,9.10
2017-11-27T23:38:51.727Z,2.87
2017-11-27T23:41:19.214Z,1.97
2017-11-27T23:43:46.667Z,1.40
2017-11-27T23:46:14.117Z,5.13
2017-11-27T23:48:41.582Z,6.37
2017-11-27T23:51:09.043Z,2.73
2017-11-27T23:53:37.274Z,2.57
2017-11-27T23:56:04.747Z,1.50
2017-11-27T23:58:32.215Z,6.90
